Time;durP1;ratioP1;P1;durP2;ratioP2;P2;SDS_P1;SDS_P2;PMS_P1;PMS_P2;Temp;Humidity;BMP_temperature;BMP_pressure;BME280_temperature;BME280_humidity;BME280_pressure;Samples;Min_cycle;Max_cycle;Signal;HPM_P1;HPM_P2
2022/12/17 13:05:54;;;;;;;8.65;3.70;;;;;;;3.41;70.65;100535.91;5026895;28;20402;-56
2022/12/17 13:08:23;;;;;;;8.40;3.58;;;;;;;3.41;71.53;100535.91;5005525;28;20132;-56
2022/12/17 13:10:51;;;;;;;8.65;3.95;;;;;;;3.38;71.52;100535.78;5004947;28;20131;-54
2022/12/17 13:16:00;;;;;;;13.73;4.85;;;;;;;3.28;71.18;100540.56;5056241;27;20399;-56
2022/12/17 13:18:34;;;;;;;8.68;3.88;;;;;;;3.27;71.58;100543.09;5046445;28;20045;-58
2022/12/17 13:21:23;;;;;;;10.63;3.60;;;;;;;3.23;70.96;100536.97;5046867;28;20049;-51
2022/12/17 13:23:50;;;;;;;9.00;3.85;;;;;;;3.21;71.26;100528.41;5042449;28;20073;-55
2022/12/17 13:26:23;;;;;;;11.55;3.60;;;;;;;3.19;72.09;100535.13;5035673;28;20045;-56
2022/12/17 13:32:19;;;;;;;8.85;3.85;;;;;;;3.22;71.97;100545.50;5059745;27;20720;-58
2022/12/17 13:40:46;;;;;;;6.85;3.63;;;;;;;3.32;71.93;100541.56;5034499;28;20408;-56
2022/12/17 13:43:17;;;;;;;8.75;4.82;;;;;;;3.26;72.24;100539.66;5011274;28;20042;-56
2022/12/17 13:45:44;;;;;;;7.82;4.55;;;;;;;3.26;72.15;100537.09;5013303;28;20497;-52
2022/12/17 13:48:27;;;;;;;8.90;4.50;;;;;;;3.22;71.69;100535.25;5013450;28;20137;-53
2022/12/17 13:51:00;;;;;;;11.02;5.07;;;;;;;3.23;72.50;100536.97;5015577;28;20069;-55
2022/12/17 13:53:28;;;;;;;8.85;3.90;;;;;;;3.18;72.23;100543.63;5013968;28;21870;-53
2022/12/17 13:55:56;;;;;;;7.95;4.18;;;;;;;3.21;72.62;100546.31;5014138;28;20176;-53
2022/12/17 13:58:28;;;;;;;7.47;4.22;;;;;;;3.20;71.89;100544.53;5018351;28;20600;-55
2022/12/17 14:01:12;;;;;;;7.47;4.63;;;;;;;3.16;72.14;100540.13;5014600;28;20805;-54
2022/12/17 14:03:43;;;;;;;8.05;2.53;;;;;;;3.17;72.10;100544.44;5011543;28;24583;-54
2022/12/17 14:06:36;;;;;;;9.20;4.35;;;;;;;3.16;71.99;100550.38;5003227;28;20194;-55
2022/12/17 14:09:04;;;;;;;5.53;2.35;;;;;;;3.13;72.63;100543.47;5016765;28;20509;-53
2022/12/17 14:14:39;;;;;;;7.25;4.28;;;;;;;3.16;71.96;100545.25;5013141;28;20037;-55
2022/12/17 14:17:16;;;;;;;10.63;4.65;;;;;;;3.15;72.76;100553.75;4992164;28;20053;-57
2022/12/17 14:19:43;;;;;;;10.60;4.75;;;;;;;3.19;73.01;100550.50;5008173;28;20045;-57
2022/12/17 14:24:50;;;;;;;6.65;2.30;;;;;;;3.21;73.01;100569.34;5012541;27;20407;-55
2022/12/17 14:27:24;;;;;;;6.63;2.60;;;;;;;3.22;72.86;100571.94;4988112;28;20054;-55
2022/12/17 14:29:51;;;;;;;6.95;3.00;;;;;;;3.21;72.80;100579.59;4989810;28;20074;-55
2022/12/17 14:32:29;;;;;;;7.25;2.72;;;;;;;3.25;72.41;100580.56;4989219;28;20050;-54
2022/12/17 14:34:55;;;;;;;5.13;2.40;;;;;;;3.24;73.30;100582.25;4988697;28;20039;-56
2022/12/17 14:37:27;;;;;;;9.55;2.55;;;;;;;3.25;72.47;100583.13;4988692;28;20054;-52
2022/12/17 14:40:00;;;;;;;8.43;3.38;;;;;;;3.26;72.56;100583.19;4988356;28;20058;-55
2022/12/17 14:42:28;;;;;;;4.93;2.53;;;;;;;3.25;73.40;100583.13;4988928;28;20592;-54
2022/12/17 14:44:58;;;;;;;6.50;2.20;;;;;;;3.22;73.38;100581.34;4993523;28;20046;-55
2022/12/17 14:58:17;;;;;;;8.27;3.55;;;;;;;3.28;73.48;100584.09;5095014;27;20404;-57
2022/12/17 15:03:38;;;;;;;7.57;2.92;;;;;;;3.19;73.72;100582.09;5027024;27;20409;-58
2022/12/17 15:06:08;;;;;;;7.55;3.65;;;;;;;3.17;74.04;100585.38;5023737;28;20458;-52
2022/12/17 15:08:39;;;;;;;7.50;3.47;;;;;;;3.15;74.33;100589.59;5032539;28;20106;-58
2022/12/17 15:11:06;;;;;;;6.90;3.05;;;;;;;3.10;73.94;100586.88;5020814;28;20050;-55
2022/12/17 15:13:33;;;;;;;7.75;3.00;;;;;;;3.10;74.35;100593.69;5018007;28;20053;-54
2022/12/17 15:16:00;;;;;;;7.55;2.83;;;;;;;3.08;74.41;100588.50;5021495;28;20096;-56
2022/12/17 15:18:26;;;;;;;8.25;3.30;;;;;;;3.03;73.60;100593.44;5014224;28;20048;-58
2022/12/17 15:20:53;;;;;;;6.88;2.58;;;;;;;3.00;74.76;100590.78;5013905;28;20141;-53
2022/12/17 15:23:22;;;;;;;7.28;2.58;;;;;;;3.00;74.62;100595.91;5016808;28;20053;-56
2022/12/17 15:25:52;;;;;;;8.57;3.30;;;;;;;3.00;73.37;100585.66;5018203;28;20085;-59
2022/12/17 15:28:20;;;;;;;7.47;3.00;;;;;;;2.98;74.77;100584.75;5018062;28;20049;-56
2022/12/17 15:30:47;;;;;;;5.93;2.97;;;;;;;2.95;74.51;100587.19;5016828;28;20095;-52
2022/12/17 15:33:15;;;;;;;9.77;3.33;;;;;;;2.94;74.19;100581.19;5017142;28;20045;-55
2022/12/17 15:35:42;;;;;;;6.15;2.70;;;;;;;2.91;74.91;100590.44;5019533;28;20053;-52
2022/12/17 15:38:10;;;;;;;10.10;3.40;;;;;;;2.90;75.03;100588.72;5014352;28;20045;-56
2022/12/17 15:40:37;;;;;;;8.05;3.03;;;;;;;2.87;74.63;100583.47;5015650;28;20136;-54
2022/12/17 15:43:12;;;;;;;8.43;2.97;;;;;;;2.84;74.25;100586.78;5014367;28;20038;-57
2022/12/17 15:45:44;;;;;;;5.50;2.65;;;;;;;2.77;74.04;100590.78;5015121;28;20041;-59
2022/12/17 15:48:13;;;;;;;9.63;3.58;;;;;;;2.73;74.46;100591.47;5013751;28;20069;-54
2022/12/17 15:50:40;;;;;;;6.72;2.85;;;;;;;2.66;74.81;100590.38;5015507;28;20081;-56
2022/12/17 15:53:08;;;;;;;9.32;3.30;;;;;;;2.66;75.56;100594.63;5015163;28;20038;-53
2022/12/17 15:55:35;;;;;;;7.95;2.75;;;;;;;2.63;75.14;100604.75;5016633;28;20092;-56
2022/12/17 15:58:03;;;;;;;9.38;3.53;;;;;;;2.61;74.45;100601.25;5015873;28;20049;-54
2022/12/17 16:00:29;;;;;;;7.22;3.58;;;;;;;2.57;75.64;100607.94;5007875;28;20137;-59
2022/12/17 16:02:56;;;;;;;12.65;3.28;;;;;;;2.54;74.82;100608.66;5014456;28;20069;-57
2022/12/17 16:05:23;;;;;;;6.95;3.67;;;;;;;2.49;74.63;100602.50;5014125;28;20658;-53
2022/12/17 16:07:50;;;;;;;10.63;3.72;;;;;;;2.48;75.25;100608.44;5023049;28;20721;-57
2022/12/17 16:10:17;;;;;;;7.60;3.47;;;;;;;2.46;75.31;100607.50;5020048;28;20107;-53
2022/12/17 16:12:44;;;;;;;7.72;3.35;;;;;;;2.41;75.46;100611.56;5011647;28;20465;-57
2022/12/17 16:15:11;;;;;;;8.05;3.53;;;;;;;2.38;75.14;100607.22;4997918;28;20049;-53
2022/12/17 16:17:38;;;;;;;9.82;4.05;;;;;;;2.35;75.50;100603.66;5003748;28;20080;-57
2022/12/17 16:20:05;;;;;;;6.35;3.38;;;;;;;2.31;75.39;100607.78;5000600;28;20136;-56
2022/12/17 16:22:32;;;;;;;4.35;2.45;;;;;;;2.23;77.07;100607.44;4995659;28;20065;-52
2022/12/17 16:24:59;;;;;;;10.82;3.85;;;;;;;2.26;76.08;100610.13;4996684;28;20103;-52
2022/12/17 16:27:26;;;;;;;7.20;2.78;;;;;;;2.21;75.72;100611.66;4995370;28;20542;-53
2022/12/17 16:29:53;;;;;;;8.90;3.63;;;;;;;2.22;76.47;100608.28;4996240;28;20124;-57
2022/12/17 16:32:19;;;;;;;9.52;3.60;;;;;;;2.22;76.67;100603.16;4999157;28;20133;-58
2022/12/17 16:34:46;;;;;;;11.70;4.47;;;;;;;2.18;76.61;100597.06;5001066;28;20112;-58
2022/12/17 16:37:12;;;;;;;20.00;3.63;;;;;;;2.17;77.28;100597.00;4995098;28;20042;-57
2022/12/17 16:39:39;;;;;;;6.93;3.60;;;;;;;2.15;76.26;100596.06;5001551;28;20204;-57
2022/12/17 16:42:06;;;;;;;7.85;3.65;;;;;;;2.12;76.48;100590.81;5001578;28;20704;-56
2022/12/17 16:44:32;;;;;;;5.65;3.03;;;;;;;2.15;76.96;100598.59;5002831;28;20077;-56
2022/12/17 16:46:59;;;;;;;6.65;3.10;;;;;;;2.14;76.71;100595.19;4999863;28;20580;-55
2022/12/17 16:49:26;;;;;;;7.45;3.70;;;;;;;2.14;76.09;100600.31;5002224;28;20064;-56
2022/12/17 16:51:54;;;;;;;11.70;3.50;;;;;;;2.11;77.09;100606.97;4999333;28;20050;-54
2022/12/17 16:54:25;;;;;;;5.53;2.60;;;;;;;2.11;76.98;100604.41;4996123;28;20058;-53
2022/12/17 16:56:53;;;;;;;6.78;3.85;;;;;;;2.08;76.36;100609.38;4981420;28;20049;-57
2022/12/17 16:59:20;;;;;;;9.63;3.20;;;;;;;2.08;76.69;100612.81;5000314;28;20121;-58
2022/12/17 17:01:48;;;;;;;8.75;3.75;;;;;;;2.05;76.53;100618.69;4996998;28;20054;-56
2022/12/17 17:04:18;;;;;;;11.65;4.10;;;;;;;2.03;77.72;100625.41;4998586;28;20517;-56
2022/12/17 17:06:48;;;;;;;8.68;3.45;;;;;;;2.02;76.29;100616.00;5004994;28;20140;-58
2022/12/17 17:09:15;;;;;;;7.65;3.22;;;;;;;1.98;77.62;100621.78;5004803;28;20096;-55
2022/12/17 17:11:42;;;;;;;6.60;3.13;;;;;;;1.99;77.61;100617.56;5002388;28;20073;-55
2022/12/17 17:14:17;;;;;;;11.40;4.35;;;;;;;1.98;76.23;100619.25;5007474;28;20183;-54
2022/12/17 17:16:43;;;;;;;11.98;3.90;;;;;;;1.96;76.60;100620.84;4998107;28;20087;-53
2022/12/17 17:19:10;;;;;;;8.18;3.58;;;;;;;1.93;77.04;100630.97;5006290;28;20537;-56
2022/12/17 17:21:39;;;;;;;10.82;3.60;;;;;;;1.92;76.24;100624.09;5001716;28;20056;-56
2022/12/17 17:24:12;;;;;;;5.53;3.22;;;;;;;1.90;76.33;100631.69;5003391;28;20141;-55
2022/12/17 17:26:46;;;;;;;10.15;3.60;;;;;;;1.90;77.76;100636.78;4997800;28;20077;-52
2022/12/17 17:29:13;;;;;;;11.93;3.42;;;;;;;1.90;77.09;100635.94;4997821;28;20139;-60
2022/12/17 17:31:39;;;;;;;9.82;3.33;;;;;;;1.89;76.01;100650.38;4997258;28;20054;-56
2022/12/17 17:34:26;;;;;;;11.00;3.45;;;;;;;1.86;77.71;100639.16;4999167;28;20057;-57
2022/12/17 17:36:52;;;;;;;9.25;3.10;;;;;;;1.85;77.76;100645.06;4996930;28;20058;-57
2022/12/17 17:39:19;;;;;;;6.65;2.65;;;;;;;1.86;76.22;100649.38;5000681;28;20133;-56
2022/12/17 17:41:46;;;;;;;5.30;2.40;;;;;;;1.86;77.38;100649.38;5001459;28;20078;-54
2022/12/17 17:44:12;;;;;;;6.07;2.88;;;;;;;1.84;76.98;100651.00;4995475;28;20449;-61
2022/12/17 17:46:40;;;;;;;7.90;3.13;;;;;;;1.84;77.88;100651.00;5000273;28;20045;-55
2022/12/17 17:49:08;;;;;;;8.27;2.58;;;;;;;1.83;76.31;100659.47;4999334;28;20085;-58
2022/12/17 17:51:37;;;;;;;9.05;3.10;;;;;;;1.80;77.75;100655.09;4999198;28;20074;-58
2022/12/17 17:54:24;;;;;;;9.10;2.80;;;;;;;1.79;76.98;100654.22;4998693;28;20050;-56
2022/12/17 17:56:50;;;;;;;7.90;3.60;;;;;;;1.79;77.47;100664.44;4994437;28;20046;-56
2022/12/17 17:59:18;;;;;;;6.97;2.42;;;;;;;1.82;76.96;100665.41;4998746;28;20061;-60
2022/12/17 18:01:48;;;;;;;6.63;2.60;;;;;;;1.79;76.68;100659.34;5000930;28;20049;-55
2022/12/17 18:04:18;;;;;;;11.43;2.65;;;;;;;1.81;77.21;100654.28;4996459;28;20493;-56
2022/12/17 18:06:46;;;;;;;5.97;2.55;;;;;;;1.79;77.48;100659.34;4999474;28;20144;-56
2022/12/17 18:09:32;;;;;;;7.18;2.78;;;;;;;1.77;77.84;100650.75;5000359;28;20119;-57
2022/12/17 18:13:53;;;;;;;5.10;2.75;;;;;;;1.75;76.77;100657.47;4993818;28;20065;-56
2022/12/17 18:14:45;;;;;;;6.57;3.03;;;;;;;1.74;77.16;100653.16;4996306;28;20111;-59
2022/12/17 18:17:32;;;;;;;7.18;3.20;;;;;;;1.74;76.81;100659.94;5000247;28;20045;-59
2022/12/17 18:19:58;;;;;;;8.68;2.40;;;;;;;1.75;77.38;100667.66;5000804;28;20120;-52
2022/12/17 18:22:26;;;;;;;7.47;3.03;;;;;;;1.75;77.48;100665.13;4992795;28;20073;-56
2022/12/17 18:24:53;;;;;;;5.90;3.03;;;;;;;1.75;78.08;100675.34;4988728;28;20144;-55
2022/12/17 18:27:19;;;;;;;5.28;2.63;;;;;;;1.73;77.31;100674.41;4997367;28;20719;-55
2022/12/17 18:29:46;;;;;;;9.13;3.78;;;;;;;1.74;77.06;100681.25;4998194;28;20057;-52
2022/12/17 18:32:12;;;;;;;7.38;3.05;;;;;;;1.72;77.77;100667.53;5001543;28;20608;-54
2022/12/17 18:34:39;;;;;;;8.60;3.60;;;;;;;1.73;77.80;100671.84;4999730;28;20069;-56
2022/12/17 18:37:05;;;;;;;9.75;3.55;;;;;;;1.73;78.08;100673.53;4996858;28;20054;-60
2022/12/17 18:39:32;;;;;;;11.68;3.53;;;;;;;1.70;77.86;100666.59;4997179;28;20054;-52
2022/12/17 18:44:45;;;;;;;6.13;3.05;;;;;;;1.69;78.21;100672.50;5001102;28;20751;-52
2022/12/17 18:47:12;;;;;;;7.65;3.10;;;;;;;1.70;77.71;100679.38;4995411;28;20909;-58
2022/12/17 18:49:39;;;;;;;12.20;3.22;;;;;;;1.67;77.68;100674.13;4987549;28;20525;-56
2022/12/17 18:52:05;;;;;;;12.80;3.60;;;;;;;1.66;77.37;100678.34;5002709;28;20049;-59
2022/12/17 18:54:38;;;;;;;7.13;3.33;;;;;;;1.67;77.21;100694.56;4998488;28;20050;-52
2022/12/17 18:57:05;;;;;;;9.40;3.65;;;;;;;1.66;76.93;100692.81;4999240;28;20128;-57
2022/12/17 18:59:31;;;;;;;7.80;4.55;;;;;;;1.60;77.36;100687.44;4998550;28;20385;-59
2022/12/17 19:01:58;;;;;;;7.25;3.30;;;;;;;1.61;78.33;100684.06;4993245;28;20132;-58
2022/12/17 19:04:26;;;;;;;9.73;3.30;;;;;;;1.59;77.56;100680.59;4993255;28;20038;-57
2022/12/17 19:06:53;;;;;;;8.23;3.03;;;;;;;1.58;76.73;100683.94;5000688;28;20561;-55
2022/12/17 19:09:24;;;;;;;12.63;4.47;;;;;;;1.55;77.64;100694.88;4996392;28;20073;-56
2022/12/17 19:11:51;;;;;;;7.20;3.55;;;;;;;1.51;76.95;100686.22;4998215;28;20044;-54
2022/12/17 19:14:20;;;;;;;9.38;3.90;;;;;;;1.48;76.61;100683.53;5002020;28;20505;-58
2022/12/17 19:16:48;;;;;;;8.52;3.20;;;;;;;1.46;77.58;100682.59;4995856;28;20180;-57
2022/12/17 19:19:15;;;;;;;10.10;3.83;;;;;;;1.44;76.50;100681.66;4994529;28;20050;-55
2022/12/17 19:21:42;;;;;;;7.95;4.18;;;;;;;1.40;77.02;100674.66;5003937;28;20049;-57
2022/12/17 19:24:13;;;;;;;7.25;2.95;;;;;;;1.36;77.26;100681.31;5005244;28;20041;-57
2022/12/17 19:26:39;;;;;;;6.15;3.10;;;;;;;1.34;76.61;100689.69;5000062;28;20057;-56
2022/12/17 19:29:07;;;;;;;8.15;3.00;;;;;;;1.35;77.61;100681.25;4999743;28;20049;-55
2022/12/17 19:31:34;;;;;;;8.02;3.03;;;;;;;1.33;77.73;100693.06;4991001;28;20077;-60
2022/12/17 19:34:06;;;;;;;11.07;2.90;;;;;;;1.33;77.69;100703.25;4999283;28;20045;-56
2022/12/17 19:36:34;;;;;;;9.32;5.00;;;;;;;1.32;77.79;100694.72;5000105;28;20064;-52
2022/12/17 19:39:05;;;;;;;6.93;3.30;;;;;;;1.29;77.44;100686.94;4999285;28;20066;-58
2022/12/17 19:41:31;;;;;;;9.02;3.55;;;;;;;1.28;77.52;100701.38;5002448;28;20133;-56
2022/12/17 19:44:00;;;;;;;7.07;3.72;;;;;;;1.25;77.59;100716.53;5001966;28;20041;-51
2022/12/17 19:46:26;;;;;;;14.40;3.47;;;;;;;1.24;77.20;100717.34;4999429;28;20064;-54
2022/12/17 19:48:54;;;;;;;14.73;3.17;;;;;;;1.24;77.52;100730.13;4992548;28;20457;-59
2022/12/17 19:51:25;;;;;;;6.30;3.20;;;;;;;1.23;76.59;100722.38;5003027;28;20113;-51
2022/12/17 19:53:52;;;;;;;5.82;3.70;;;;;;;1.20;77.83;100728.22;5000875;28;20515;-57
2022/12/17 19:59:00;;;;;;;7.30;3.65;;;;;;;1.14;77.64;100727.91;5051237;28;20412;-52
2022/12/17 20:01:30;;;;;;;7.75;4.10;;;;;;;1.10;77.29;100733.69;5017259;28;20084;-54
2022/12/17 20:03:58;;;;;;;6.03;3.03;;;;;;;1.09;76.49;100734.50;5015178;28;20049;-49
2022/12/17 20:06:28;;;;;;;9.07;3.30;;;;;;;1.06;77.47;100725.03;5032588;28;20697;-52
2022/12/17 20:08:57;;;;;;;7.72;3.70;;;;;;;1.04;77.79;100728.31;5010863;28;20133;-55
2022/12/17 20:11:39;;;;;;;6.25;3.30;;;;;;;1.01;77.24;100724.81;5013101;28;20137;-52
2022/12/17 20:16:45;;;;;;;15.18;5.30;;;;;;;0.98;76.92;100732.31;5037509;28;20393;-58
2022/12/17 20:19:15;;;;;;;9.63;3.22;;;;;;;0.97;77.19;100730.56;5002224;28;20125;-52
2022/12/17 20:21:41;;;;;;;12.77;4.30;;;;;;;0.94;77.04;100725.31;4998880;28;20100;-55
2022/12/17 20:24:10;;;;;;;11.50;5.28;;;;;;;0.92;76.47;100726.94;5008863;28;20043;-54
2022/12/17 20:26:37;;;;;;;9.00;4.22;;;;;;;0.88;77.14;100725.91;5000697;28;20181;-56
2022/12/17 20:29:04;;;;;;;10.70;5.47;;;;;;;0.88;76.91;100731.00;5015677;28;20046;-55
2022/12/17 20:31:32;;;;;;;9.07;3.95;;;;;;;0.87;76.45;100733.47;5002671;28;20426;-56
2022/12/17 20:34:00;;;;;;;7.03;3.38;;;;;;;0.84;77.34;100733.34;5002587;28;20406;-59
2022/12/17 20:36:26;;;;;;;10.98;4.93;;;;;;;0.83;76.58;100737.56;4999507;28;20518;-58
2022/12/17 20:38:53;;;;;;;9.00;3.10;;;;;;;0.83;77.21;100731.56;5002231;28;20042;-56
2022/12/17 20:41:23;;;;;;;6.80;3.25;;;;;;;0.82;77.21;100735.81;4998489;28;20766;-54
2022/12/17 20:43:51;;;;;;;8.73;4.45;;;;;;;0.80;77.66;100726.31;4994319;28;20547;-58
2022/12/17 20:46:19;;;;;;;11.23;5.28;;;;;;;0.79;77.17;100722.03;4998692;28;20061;-55
2022/12/17 20:48:46;;;;;;;8.48;3.38;;;;;;;0.79;76.50;100710.16;4998016;28;20470;-57
2022/12/17 20:51:16;;;;;;;10.15;4.75;;;;;;;0.80;77.42;100709.34;4999204;28;20141;-56
2022/12/17 20:53:43;;;;;;;7.68;4.88;;;;;;;0.81;76.91;100698.34;5015274;28;20104;-57
2022/12/17 20:56:13;;;;;;;7.03;2.83;;;;;;;0.81;76.54;100706.00;4996151;28;20626;-58
2022/12/17 20:58:41;;;;;;;6.28;3.63;;;;;;;0.74;76.96;100702.28;4991591;28;20046;-55
2022/12/17 21:03:45;;;;;;;8.45;4.10;;;;;;;0.71;77.22;100709.78;5020914;28;20434;-55
2022/12/17 21:06:15;;;;;;;12.73;5.53;;;;;;;0.73;76.92;100715.84;4997908;28;20076;-56
2022/12/17 21:08:43;;;;;;;10.38;5.40;;;;;;;0.71;77.11;100712.31;4998334;28;20081;-55
2022/12/17 21:11:18;;;;;;;7.63;4.93;;;;;;;0.68;76.79;100717.31;4996043;28;20066;-59
2022/12/17 21:13:45;;;;;;;9.02;5.28;;;;;;;0.64;75.98;100715.38;4995301;28;20593;-53
2022/12/17 21:16:15;;;;;;;8.77;6.05;;;;;;;0.62;76.47;100709.34;4995769;28;20046;-54
2022/12/17 21:18:41;;;;;;;9.45;5.60;;;;;;;0.56;75.80;100711.59;4997205;28;20144;-55
2022/12/17 21:21:12;;;;;;;10.98;5.03;;;;;;;0.52;75.98;100705.47;4999213;28;20050;-57
2022/12/17 21:23:40;;;;;;;8.43;4.43;;;;;;;0.47;75.70;100705.25;4995197;28;20085;-50
2022/12/17 21:26:12;;;;;;;11.68;5.80;;;;;;;0.44;76.28;100707.63;4999761;28;20049;-56
2022/12/17 21:28:41;;;;;;;9.55;5.32;;;;;;;0.43;76.80;100705.91;4999604;28;20524;-58
2022/12/17 21:31:29;;;;;;;;;;;;;;;0.41;76.28;100711.72;4982432;28;20062;-54
2022/12/17 21:33:58;;;;;;;7.43;5.07;;;;;;;0.38;76.01;100707.34;4996735;28;19944;-51
2022/12/17 21:36:27;;;;;;;8.20;5.05;;;;;;;0.34;76.12;100711.41;4995433;28;20046;-50
2022/12/17 21:38:54;;;;;;;10.18;5.82;;;;;;;0.32;76.63;100722.31;4993442;28;20088;-56
2022/12/17 21:41:24;;;;;;;8.32;4.93;;;;;;;0.32;76.23;100717.22;4995794;28;20092;-54
2022/12/17 21:43:54;;;;;;;12.30;6.07;;;;;;;0.28;76.15;100722.97;4997024;28;20760;-53
2022/12/17 21:46:21;;;;;;;6.95;4.25;;;;;;;0.24;76.04;100725.38;4996179;28;20460;-51
2022/12/17 21:48:48;;;;;;;7.70;3.55;;;;;;;0.22;76.83;100726.97;4998630;28;20505;-57
2022/12/17 21:51:16;;;;;;;11.45;5.32;;;;;;;0.18;76.95;100726.72;4993816;28;20054;-55
2022/12/17 21:53:42;;;;;;;8.57;4.80;;;;;;;0.15;76.86;100730.00;4996401;28;20116;-57
2022/12/17 21:56:12;;;;;;;10.07;4.97;;;;;;;0.11;76.51;100733.19;4999816;28;20046;-54
2022/12/17 21:58:40;;;;;;;10.77;6.00;;;;;;;0.10;76.53;100726.34;4994358;28;20054;-57
2022/12/17 22:03:46;;;;;;;11.32;4.53;;;;;;;0.06;76.25;100729.53;5024964;28;20407;-51
2022/12/17 22:06:20;;;;;;;8.98;3.28;;;;;;;0.02;76.23;100732.72;5029546;28;20046;-59
2022/12/17 22:08:48;;;;;;;9.10;3.60;;;;;;;0.01;76.38;100730.97;5015156;28;20049;-51
2022/12/17 22:11:20;;;;;;;9.10;4.30;;;;;;;-0.02;76.28;100731.69;5015540;28;20061;-50
2022/12/17 22:16:47;;;;;;;10.27;3.70;;;;;;;-0.10;76.85;100723.63;5014886;28;20242;-55
2022/12/17 22:19:19;;;;;;;10.32;4.55;;;;;;;-0.13;76.79;100733.69;5013730;28;20136;-52
2022/12/17 22:21:49;;;;;;;9.77;3.88;;;;;;;-0.18;76.15;100722.38;4997558;28;20050;-54
2022/12/17 22:24:20;;;;;;;8.85;3.67;;;;;;;-0.21;76.62;100729.88;5012792;28;20173;-54
2022/12/17 22:26:46;;;;;;;12.60;4.15;;;;;;;-0.24;76.24;100734.81;5017414;28;20481;-53
2022/12/17 22:32:58;;;;;;;9.93;4.18;;;;;;;-0.28;76.08;100732.09;5010163;28;20073;-51
2022/12/17 22:34:48;;;;;;;8.63;3.72;;;;;;;-0.38;76.25;100727.28;5013694;28;20077;-49
2022/12/17 22:37:34;;;;;;;8.82;3.80;;;;;;;-0.41;76.65;100724.59;5014320;28;20169;-53
2022/12/17 22:40:21;;;;;;;15.38;4.05;;;;;;;-0.45;76.26;100704.84;4995772;28;20053;-54
2022/12/17 22:46:17;;;;;;;18.17;4.10;;;;;;;-0.50;76.36;100716.47;4993878;28;20082;-55
2022/12/17 22:48:43;;;;;;;10.15;4.65;;;;;;;-0.52;76.74;100712.19;5009953;28;20050;-55
2022/12/17 22:51:11;;;;;;;8.68;4.53;;;;;;;-0.55;76.73;100706.94;5012294;28;20037;-49
2022/12/17 22:54:00;;;;;;;13.52;4.28;;;;;;;-0.57;76.73;100716.13;5016947;28;20755;-54
2022/12/17 22:56:27;;;;;;;8.60;3.53;;;;;;;-0.60;76.44;100705.81;5012286;28;20049;-53
2022/12/17 22:59:15;;;;;;;10.10;4.22;;;;;;;-0.62;76.32;100711.59;5017482;28;20060;-51
2022/12/17 23:01:42;;;;;;;11.40;3.83;;;;;;;-0.64;77.24;100709.00;5045708;28;20081;-57
2022/12/17 23:04:12;;;;;;;10.55;3.53;;;;;;;-0.66;76.31;100710.56;5015151;28;20051;-54
2022/12/17 23:06:40;;;;;;;6.80;3.58;;;;;;;-0.69;76.43;100711.28;5017982;28;20141;-52
2022/12/17 23:09:06;;;;;;;11.85;4.43;;;;;;;-0.71;76.42;100712.00;5019237;28;20053;-54
2022/12/17 23:11:33;;;;;;;10.18;4.68;;;;;;;-0.73;76.76;100713.56;5014366;28;20477;-52
2022/12/17 23:14:01;;;;;;;10.07;4.43;;;;;;;-0.75;76.40;100715.16;5009770;28;20134;-54
2022/12/17 23:16:27;;;;;;;8.32;3.90;;;;;;;-0.78;76.46;100711.66;5006090;28;20061;-54
2022/12/17 23:18:54;;;;;;;10.80;3.72;;;;;;;-0.81;76.06;100708.94;5007188;28;20072;-54
2022/12/17 23:21:24;;;;;;;12.18;4.78;;;;;;;-0.84;76.52;100711.31;5001657;28;20050;-53
2022/12/17 23:23:52;;;;;;;9.95;4.18;;;;;;;-0.88;76.47;100714.47;5003655;28;20092;-53
2022/12/17 23:26:24;;;;;;;11.55;4.45;;;;;;;-0.92;76.52;100708.38;5000721;28;20073;-55
2022/12/17 23:28:53;;;;;;;14.27;4.75;;;;;;;-0.93;76.59;100711.72;4997320;28;20078;-54
2022/12/17 23:31:20;;;;;;;10.18;4.45;;;;;;;-0.96;76.86;100706.44;4999342;28;20561;-54
2022/12/17 23:33:47;;;;;;;10.98;4.72;;;;;;;-0.93;76.84;100710.81;4993763;28;20136;-55
2022/12/17 23:36:16;;;;;;;11.88;4.78;;;;;;;-0.96;76.67;100718.28;4994737;28;20148;-57
2022/12/17 23:38:43;;;;;;;11.23;4.10;;;;;;;-0.95;76.55;100728.53;5001915;28;20187;-56
2022/12/17 23:41:16;;;;;;;11.75;4.38;;;;;;;-0.95;76.95;100714.97;5001652;28;20050;-53
2022/12/17 23:43:44;;;;;;;12.77;4.10;;;;;;;-0.93;77.00;100711.72;4995980;28;20062;-58
2022/12/17 23:46:11;;;;;;;15.18;4.00;;;;;;;-0.94;76.91;100720.09;4998900;28;20066;-52
2022/12/17 23:48:40;;;;;;;10.98;4.32;;;;;;;-0.93;77.18;100721.00;5003177;28;20314;-52
2022/12/17 23:51:13;;;;;;;7.90;3.97;;;;;;;-0.94;77.25;100720.09;5006538;28;20061;-50
2022/12/17 23:53:40;;;;;;;13.65;4.13;;;;;;;-0.92;77.11;100715.09;5000286;28;20239;-55
2022/12/17 23:58:46;;;;;;;14.13;6.65;;;;;;;-0.88;77.19;100701.75;5045305;28;20404;-56
